首页
METAR-TAF:

METAR-TAF

机场 :

石油平台

P11-b, 荷兰

纬度: 52-21-36N, 经度: 3-20-30E, 海拔: 24米

当前天气观测

该预报发布于37分钟前的08:25 UTC
风速10节,风向,在西之间变化
温度 14°C
湿度 100%
气压 1027 hPa
能見度: 9000
少量云层低于100英尺
阴天层高于200英尺

METAR: EHPG 260825Z AUTO 35010KT 270V080 9000 FEW000 OVC002 14/14 Q1027 W///H///

时间: 11:02 (09:02 UTC)


TAF: 丢失

超过4000个机场的气象观测和天气预报(METAR&TAF报告)。

可查询的气象台以黄色和红色小点在地图上表示。

将鼠标移到小点上方,可查看气象台名称。

然后点击查看天气观测和预报。

如需切换地图:点击带黑十字的绿色按钮放大地图;点击带横线的绿色按钮缩小地图;或者点击绿色箭头查看邻近地区的地图。


METAR-TAF: